Queen Of Burnaby — VCVV — position and weather

sailwx.info

Track history (hours):
 
Tides and Currents Weather Stations Pressure Air Temp Water Temp Dewpoint Dewpoint Depression Visibility Wind Speed Wind Dir Waves Ship Positions

Queen Of Burnaby

Last reported at 2014-Nov-23 03:33 UTC. Time now 2014-Nov-23 03:46 UTC.
Position N 49°47' W 124°43'.

Length 130 m; draft 4 m.

MMSI: 316001246.

Date/timePositionNaut miles runAvg speedWind from/ knotsBaromVisibWave heightAir tempDewpointWater temp
2014-Nov-23 03:33N 49°47' W 124°43'3 0.3
2014-Nov-22 18:30N 49°46' W 124°48'8 2.8
2014-Nov-22 15:30N 49°50' W 124°36'2 0.1
2014-Nov-22 04:20N 49°50' W 124°33'1215.3
2014-Nov-22 03:33N 49°46' W 124°51'10 3.3
2014-Nov-22 00:29N 49°50' W 124°36'1110.9
2014-Nov-21 23:29N 49°45' W 124°52'2 0.9
2014-Nov-21 21:21N 49°44' W 124°50'8 9.5
2014-Nov-21 20:34N 49°47' W 124°39'4 3.4
2014-Nov-21 19:28N 49°50' W 124°35'10 5.4
2014-Nov-21 17:32N 49°44' W 124°48'10 4.9
2014-Nov-21 15:33N 49°50' W 124°36'2 0.2
2014-Nov-21 04:21N 49°50' W 124°33'1114.2
2014-Nov-21 03:33N 49°46' W 124°50'11 3.7
2014-Nov-21 00:28N 49°50' W 124°33'1213.2
2014-Nov-20 23:32N 49°45' W 124°51'1 0.5
2014-Nov-20 21:14N 49°44' W 124°51'13 7.5
2014-Nov-20 19:33N 49°50' W 124°34'10 5.1
2014-Nov-20 17:30N 49°43' W 124°46'8 4.0
2014-Nov-20 15:31N 49°49' W 124°38'4 0.3
2014-Nov-20 03:33N 49°47' W 124°43'8 1.0
2014-Nov-19 19:26N 49°50' W 124°32'1111.5
2014-Nov-19 18:31N 49°46' W 124°47'7 2.4
2014-Nov-19 15:27N 49°49' W 124°37'2 0.2
2014-Nov-19 04:23N 49°50' W 124°33'3 0.8
2014-Nov-19 00:12N 49°49' W 124°38'1014.7
2014-Nov-18 23:32N 49°45' W 124°52'13 3.1
2014-Nov-18 19:19N 49°50' W 124°33'1012.7
2014-Nov-18 18:33N 49°46' W 124°47'7 2.3
2014-Nov-18 15:31N 49°49' W 124°37'0 0.0
2014-Nov-18 04:13N 49°49' W 124°37'1015.1
2014-Nov-18 03:33N 49°45' W 124°51'10 3.0
2014-Nov-18 00:15N 49°49' W 124°37'1 0.1
2014-Nov-17 19:03N 49°50' W 124°36'713.4
2014-Nov-17 18:33N 49°46' W 124°46'7 2.4
2014-Nov-17 15:31N 49°50' W 124°36'2 0.2
2014-Nov-17 04:22N 49°50' W 124°33'1315.1
2014-Nov-17 03:31N 49°45' W 124°51'12 4.0
2014-Nov-17 00:27N 49°50' W 124°33'1 0.2
2014-Nov-16 19:26N 49°50' W 124°32'1010.8
2014-Nov-16 18:32N 49°47' W 124°46'6 2.0
2014-Nov-16 15:32N 49°49' W 124°38'3 0.3
2014-Nov-16 04:14N 49°50' W 124°33'1012.3
2014-Nov-16 03:27N 49°46' W 124°46'9 1.1
2014-Nov-15 19:17N 49°50' W 124°34'1012.7
2014-Nov-15 18:31N 49°46' W 124°48'9 2.9
2014-Nov-15 15:33N 49°50' W 124°35'1 0.1
2014-Nov-15 04:14N 49°49' W 124°36'2 0.5
2014-Nov-15 00:32N 49°50' W 124°33'1312.9
2014-Nov-14 23:30N 49°45' W 124°52'13 3.1
2014-Nov-14 19:13N 49°50' W 124°33'913.4
2014-Nov-14 18:33N 49°47' W 124°46'7 2.4
2014-Nov-14 15:30N 49°49' W 124°36'2 0.2
2014-Nov-14 04:23N 49°51' W 124°33'1314.8
2014-Nov-14 03:32N 49°45' W 124°51'9 2.8
2014-Nov-14 00:16N 49°49' W 124°38'913.0
2014-Nov-13 23:33N 49°45' W 124°51'2 0.5
2014-Nov-13 18:27N 49°46' W 124°48'8 2.6
2014-Nov-13 15:27N 49°49' W 124°37'2 0.2
2014-Nov-13 04:06N 49°50' W 124°34'  
Track history (hours):
 
Tides and Currents Weather Stations Pressure Air Temp Water Temp Dewpoint Dewpoint Depression Visibility Wind Speed Wind Dir Waves Ship Positions

Queen Of Burnaby

Last reported at 2014-Nov-23 03:33 UTC. Time now 2014-Nov-23 03:46 UTC.
Position N 49°47' W 124°43'.

Length 130 m; draft 4 m.

MMSI: 316001246.

Date/timePositionNaut miles runAvg speedWind from/ knotsBaromVisibWave heightAir tempDewpointWater temp
2014-Nov-23 03:33N 49°47' W 124°43'3 0.3
2014-Nov-22 18:30N 49°46' W 124°48'8 2.8
2014-Nov-22 15:30N 49°50' W 124°36'2 0.1
2014-Nov-22 04:20N 49°50' W 124°33'1215.3
2014-Nov-22 03:33N 49°46' W 124°51'10 3.3
2014-Nov-22 00:29N 49°50' W 124°36'1110.9
2014-Nov-21 23:29N 49°45' W 124°52'2 0.9
2014-Nov-21 21:21N 49°44' W 124°50'8 9.5
2014-Nov-21 20:34N 49°47' W 124°39'4 3.4
2014-Nov-21 19:28N 49°50' W 124°35'10 5.4
2014-Nov-21 17:32N 49°44' W 124°48'10 4.9
2014-Nov-21 15:33N 49°50' W 124°36'2 0.2
2014-Nov-21 04:21N 49°50' W 124°33'1114.2
2014-Nov-21 03:33N 49°46' W 124°50'11 3.7
2014-Nov-21 00:28N 49°50' W 124°33'1213.2
2014-Nov-20 23:32N 49°45' W 124°51'1 0.5
2014-Nov-20 21:14N 49°44' W 124°51'13 7.5
2014-Nov-20 19:33N 49°50' W 124°34'10 5.1
2014-Nov-20 17:30N 49°43' W 124°46'8 4.0
2014-Nov-20 15:31N 49°49' W 124°38'4 0.3
2014-Nov-20 03:33N 49°47' W 124°43'8 1.0
2014-Nov-19 19:26N 49°50' W 124°32'1111.5
2014-Nov-19 18:31N 49°46' W 124°47'7 2.4
2014-Nov-19 15:27N 49°49' W 124°37'2 0.2
2014-Nov-19 04:23N 49°50' W 124°33'3 0.8
2014-Nov-19 00:12N 49°49' W 124°38'1014.7
2014-Nov-18 23:32N 49°45' W 124°52'13 3.1
2014-Nov-18 19:19N 49°50' W 124°33'1012.7
2014-Nov-18 18:33N 49°46' W 124°47'7 2.3
2014-Nov-18 15:31N 49°49' W 124°37'0 0.0
2014-Nov-18 04:13N 49°49' W 124°37'1015.1
2014-Nov-18 03:33N 49°45' W 124°51'10 3.0
2014-Nov-18 00:15N 49°49' W 124°37'1 0.1
2014-Nov-17 19:03N 49°50' W 124°36'713.4
2014-Nov-17 18:33N 49°46' W 124°46'7 2.4
2014-Nov-17 15:31N 49°50' W 124°36'2 0.2
2014-Nov-17 04:22N 49°50' W 124°33'1315.1
2014-Nov-17 03:31N 49°45' W 124°51'12 4.0
2014-Nov-17 00:27N 49°50' W 124°33'1 0.2
2014-Nov-16 19:26N 49°50' W 124°32'1010.8
2014-Nov-16 18:32N 49°47' W 124°46'6 2.0
2014-Nov-16 15:32N 49°49' W 124°38'3 0.3
2014-Nov-16 04:14N 49°50' W 124°33'1012.3
2014-Nov-16 03:27N 49°46' W 124°46'9 1.1
2014-Nov-15 19:17N 49°50' W 124°34'1012.7
2014-Nov-15 18:31N 49°46' W 124°48'9 2.9
2014-Nov-15 15:33N 49°50' W 124°35'1 0.1
2014-Nov-15 04:14N 49°49' W 124°36'2 0.5
2014-Nov-15 00:32N 49°50' W 124°33'1312.9
2014-Nov-14 23:30N 49°45' W 124°52'13 3.1
2014-Nov-14 19:13N 49°50' W 124°33'913.4
2014-Nov-14 18:33N 49°47' W 124°46'7 2.4
2014-Nov-14 15:30N 49°49' W 124°36'2 0.2
2014-Nov-14 04:23N 49°51' W 124°33'1314.8
2014-Nov-14 03:32N 49°45' W 124°51'9 2.8
2014-Nov-14 00:16N 49°49' W 124°38'913.0
2014-Nov-13 23:33N 49°45' W 124°51'2 0.5
2014-Nov-13 18:27N 49°46' W 124°48'8 2.6
2014-Nov-13 15:27N 49°49' W 124°37'2 0.2
2014-Nov-13 04:06N 49°50' W 124°34'  

Dump ship's entire track history